createdAt,value
2019-03-11T00:01:18.154Z,5.70
2019-03-11T00:03:58.929Z,5.43
2019-03-11T00:06:39.899Z,5.80
2019-03-11T00:09:20.912Z,5.13
2019-03-11T00:12:01.495Z,5.23
2019-03-11T00:14:42.066Z,5.60
2019-03-11T00:17:22.987Z,5.57
2019-03-11T00:20:03.899Z,5.23
2019-03-11T00:22:44.407Z,5.60
2019-03-11T00:25:25.231Z,5.43
2019-03-11T00:28:05.894Z,5.60
2019-03-11T00:30:46.544Z,5.20
2019-03-11T00:33:27.338Z,5.23
2019-03-11T00:36:07.932Z,5.20
2019-03-11T00:38:48.734Z,5.90
2019-03-11T00:44:12.459Z,4.97
2019-03-11T00:46:52.849Z,5.33
2019-03-11T00:49:33.675Z,5.77
2019-03-11T00:52:14.029Z,5.47
2019-03-11T00:54:54.560Z,5.73
2019-03-11T00:57:35.682Z,5.40
2019-03-11T01:00:16.527Z,5.97
2019-03-11T01:02:57.147Z,5.83
2019-03-11T01:05:38.089Z,5.60
2019-03-11T01:08:18.847Z,6.07
2019-03-11T01:10:59.550Z,6.20
2019-03-11T01:13:40.296Z,6.00
2019-03-11T01:16:22.219Z,5.97
2019-03-11T01:19:03.175Z,6.23
2019-03-11T01:24:25.948Z,7.00
2019-03-11T01:27:06.840Z,6.43
2019-03-11T01:29:47.603Z,7.00
2019-03-11T01:32:28.559Z,6.83
2019-03-11T01:35:09.144Z,7.00
2019-03-11T01:37:50.203Z,6.27
2019-03-11T01:40:30.820Z,6.33
2019-03-11T01:43:11.949Z,6.27
2019-03-11T01:45:52.567Z,6.00
2019-03-11T01:48:32.878Z,6.87
2019-03-11T01:51:13.740Z,6.80
2019-03-11T01:53:54.675Z,7.40
2019-03-11T01:56:35.220Z,6.83
2019-03-11T01:59:15.747Z,7.47
2019-03-11T02:01:56.652Z,7.23
2019-03-11T02:04:37.570Z,7.27
2019-03-11T02:07:06.017Z,6.80
2019-03-11T02:09:53.814Z,7.10
2019-03-11T02:12:41.586Z,7.27
2019-03-11T02:15:22.396Z,7.97
2019-03-11T02:18:03.170Z,7.40
2019-03-11T02:20:43.760Z,6.97
2019-03-11T02:23:24.699Z,6.17
2019-03-11T02:26:05.767Z,6.30
2019-03-11T02:28:46.550Z,5.60
2019-03-11T02:31:27.651Z,4.80
2019-03-11T02:34:08.490Z,4.43
2019-03-11T02:36:49.437Z,3.60
2019-03-11T02:39:30.138Z,3.70
2019-03-11T02:42:11.116Z,3.30
2019-03-11T02:44:51.591Z,3.63
2019-03-11T02:47:32.346Z,3.67
2019-03-11T02:50:12.958Z,3.43
2019-03-11T02:52:53.530Z,3.33
2019-03-11T02:55:34.186Z,2.83
2019-03-11T02:58:14.821Z,3.20
2019-03-11T03:00:57.374Z,3.30
2019-03-11T03:03:39.931Z,3.30
2019-03-11T03:06:20.883Z,3.20
2019-03-11T03:09:01.691Z,3.70
2019-03-11T03:11:42.256Z,3.70
2019-03-11T03:14:22.910Z,4.30
2019-03-11T03:17:03.796Z,4.13
2019-03-11T03:19:44.397Z,4.00
2019-03-11T03:22:24.979Z,4.70
2019-03-11T03:25:05.641Z,4.20
2019-03-11T03:27:46.384Z,4.23
2019-03-11T03:30:27.380Z,4.60
2019-03-11T03:33:08.606Z,4.70
2019-03-11T03:35:49.314Z,4.70
2019-03-11T03:38:31.360Z,4.23
2019-03-11T03:41:11.972Z,4.40
2019-03-11T03:43:52.954Z,4.80
2019-03-11T03:46:33.937Z,5.10
2019-03-11T03:49:14.913Z,5.37
2019-03-11T03:51:55.812Z,4.70
2019-03-11T03:54:36.565Z,4.90
2019-03-11T03:57:17.541Z,5.70
2019-03-11T03:59:58.292Z,5.00
2019-03-11T04:02:39.416Z,4.70
2019-03-11T04:05:20.395Z,4.57
2019-03-11T04:08:00.922Z,4.60
2019-03-11T04:10:41.757Z,4.53
2019-03-11T04:13:22.487Z,4.70
2019-03-11T04:16:03.426Z,4.73
2019-03-11T04:18:43.671Z,4.40
2019-03-11T04:21:24.252Z,4.90
2019-03-11T04:24:05.146Z,4.90
2019-03-11T04:26:46.140Z,4.60
2019-03-11T04:29:27.159Z,4.43
2019-03-11T04:32:07.895Z,5.57
2019-03-11T04:34:48.414Z,6.23
2019-03-11T04:37:29.119Z,8.27
2019-03-11T04:40:09.334Z,6.03
2019-03-11T04:45:33.065Z,6.80
2019-03-11T04:48:14.211Z,6.80
2019-03-11T04:50:55.081Z,6.37
2019-03-11T04:53:35.635Z,7.37
2019-03-11T04:56:16.181Z,7.33
2019-03-11T04:58:57.124Z,7.30
2019-03-11T05:01:38.077Z,7.70
2019-03-11T05:04:19.020Z,7.07
2019-03-11T05:06:47.480Z,6.97
2019-03-11T05:09:35.250Z,7.00
2019-03-11T05:12:16.312Z,6.83
2019-03-11T05:14:57.005Z,6.67
2019-03-11T05:17:38.106Z,5.87
2019-03-11T05:20:19.063Z,6.47
2019-03-11T05:23:00.016Z,6.40
2019-03-11T05:25:40.781Z,5.70
2019-03-11T05:28:21.415Z,6.17
2019-03-11T05:31:02.453Z,5.83
2019-03-11T05:33:43.256Z,5.40
2019-03-11T05:36:24.064Z,5.70
2019-03-11T05:39:04.859Z,5.53
2019-03-11T05:41:45.883Z,5.50
2019-03-11T05:44:26.725Z,4.90
2019-03-11T05:47:07.789Z,4.40
2019-03-11T05:49:48.465Z,4.57
2019-03-11T05:52:28.907Z,4.13
2019-03-11T05:57:52.251Z,4.13
2019-03-11T06:00:33.782Z,3.90
2019-03-11T06:03:14.887Z,3.43
2019-03-11T06:05:55.511Z,3.57
2019-03-11T06:08:35.806Z,3.50
2019-03-11T06:11:16.641Z,3.50
2019-03-11T06:13:57.116Z,3.40
2019-03-11T06:16:37.648Z,4.10
2019-03-11T06:19:18.239Z,4.47
2019-03-11T06:24:52.076Z,4.27
2019-03-11T06:27:32.537Z,4.03
2019-03-11T06:30:13.094Z,4.20
2019-03-11T06:32:53.887Z,5.40
2019-03-11T06:35:34.613Z,4.10
2019-03-11T06:38:15.291Z,4.80
2019-03-11T06:40:55.733Z,4.40
2019-03-11T06:43:36.765Z,4.63
2019-03-11T06:46:17.404Z,5.27
2019-03-11T06:48:58.309Z,4.77
2019-03-11T06:51:39.134Z,5.10
2019-03-11T06:54:19.576Z,5.07
2019-03-11T06:57:00.407Z,4.37
2019-03-11T06:59:41.365Z,4.13
2019-03-11T07:02:22.191Z,4.83
2019-03-11T07:05:02.945Z,5.00
2019-03-11T07:07:43.456Z,4.87
2019-03-11T07:10:23.866Z,4.23
2019-03-11T07:13:04.643Z,4.10
2019-03-11T07:15:45.407Z,4.50
2019-03-11T07:18:26.287Z,4.60
2019-03-11T07:21:07.323Z,3.90
2019-03-11T07:23:47.948Z,4.53
2019-03-11T07:26:28.925Z,4.60
2019-03-11T07:29:09.785Z,4.73
2019-03-11T07:31:50.714Z,4.27
2019-03-11T07:34:31.140Z,3.77
2019-03-11T07:37:11.763Z,4.20
2019-03-11T07:42:53.728Z,3.73
2019-03-11T07:48:17.367Z,4.57
2019-03-11T07:50:58.291Z,3.77
2019-03-11T07:53:39.129Z,3.90
2019-03-11T07:56:19.730Z,3.90
2019-03-11T07:59:00.308Z,3.83
2019-03-11T08:01:41.392Z,3.97
2019-03-11T08:04:22.021Z,3.93
2019-03-11T08:07:02.830Z,3.70
2019-03-11T08:09:43.438Z,4.20
2019-03-11T08:12:24.152Z,5.27
2019-03-11T08:15:05.015Z,4.03
2019-03-11T08:17:45.501Z,4.20
2019-03-11T08:20:26.288Z,3.73
2019-03-11T08:23:07.098Z,4.80
2019-03-11T08:25:47.987Z,3.80
2019-03-11T08:28:28.314Z,3.67
2019-03-11T08:31:09.202Z,3.67
2019-03-11T08:33:49.886Z,4.23
2019-03-11T08:36:30.667Z,3.23
2019-03-11T08:39:11.696Z,3.20
2019-03-11T08:41:52.551Z,3.20
2019-03-11T08:44:33.665Z,3.20
2019-03-11T08:47:14.427Z,3.50
2019-03-11T08:49:55.446Z,3.47
2019-03-11T08:52:36.216Z,3.30
2019-03-11T08:55:17.111Z,3.07
2019-03-11T08:57:57.578Z,3.73
2019-03-11T09:00:38.369Z,3.30
2019-03-11T09:03:19.378Z,3.00
2019-03-11T09:05:59.788Z,3.23
2019-03-11T09:08:40.649Z,3.47
2019-03-11T09:11:21.303Z,3.20
2019-03-11T09:14:02.379Z,3.60
2019-03-11T09:16:42.962Z,3.70
2019-03-11T09:19:24.040Z,3.27
2019-03-11T09:22:04.811Z,3.80
2019-03-11T09:24:45.718Z,3.73
2019-03-11T09:27:26.438Z,3.00
2019-03-11T09:30:07.210Z,3.30
2019-03-11T09:32:48.018Z,2.70
2019-03-11T09:35:28.477Z,2.83
2019-03-11T09:38:09.423Z,3.00
2019-03-11T09:40:50.236Z,2.67
2019-03-11T09:43:30.937Z,3.00
2019-03-11T09:46:11.648Z,2.70
2019-03-11T09:48:52.711Z,2.53
2019-03-11T09:51:33.442Z,2.57
2019-03-11T09:54:14.225Z,2.93
2019-03-11T09:56:55.234Z,2.40
2019-03-11T09:59:35.933Z,2.40
2019-03-11T10:02:16.765Z,2.67
2019-03-11T10:04:57.163Z,2.53
2019-03-11T10:07:38.095Z,2.37
2019-03-11T10:10:18.636Z,2.40
2019-03-11T10:12:59.128Z,2.30
2019-03-11T10:15:39.816Z,2.60
2019-03-11T10:18:20.475Z,2.50
2019-03-11T10:21:01.495Z,3.07
2019-03-11T10:23:42.026Z,2.80
2019-03-11T10:26:22.776Z,2.60
2019-03-11T10:29:03.427Z,2.60
2019-03-11T10:31:44.233Z,2.80
2019-03-11T10:34:24.918Z,2.93
2019-03-11T10:37:05.459Z,2.90
2019-03-11T10:39:47.946Z,3.60
2019-03-11T10:42:29.010Z,2.93
2019-03-11T10:45:09.557Z,2.80
2019-03-11T10:47:50.081Z,2.70
2019-03-11T10:50:30.643Z,2.50
2019-03-11T10:53:11.539Z,2.80
2019-03-11T10:55:51.947Z,2.90
2019-03-11T10:58:32.519Z,2.57
2019-03-11T11:01:13.055Z,2.73
2019-03-11T11:03:53.856Z,2.30
2019-03-11T11:06:34.699Z,2.60
2019-03-11T11:09:15.639Z,3.40
2019-03-11T11:11:56.219Z,3.37
2019-03-11T11:14:37.104Z,2.97
2019-03-11T11:17:17.632Z,3.07
2019-03-11T11:20:03.364Z,3.40
2019-03-11T11:22:40.951Z,3.07
2019-03-11T11:25:21.824Z,3.47
2019-03-11T11:28:02.680Z,3.43
2019-03-11T11:30:43.131Z,3.43
2019-03-11T11:33:23.952Z,3.20
2019-03-11T11:36:05.007Z,3.67
2019-03-11T11:38:45.315Z,3.73
2019-03-11T11:41:26.197Z,3.43
2019-03-11T11:44:06.604Z,3.20
2019-03-11T11:46:47.322Z,3.47
2019-03-11T11:49:27.740Z,3.67
2019-03-11T11:52:08.611Z,3.40
2019-03-11T11:54:49.428Z,3.23
2019-03-11T11:57:30.150Z,3.30
2019-03-11T12:00:10.741Z,3.47
2019-03-11T12:02:51.321Z,3.23
2019-03-11T12:05:31.844Z,3.40
2019-03-11T12:08:12.340Z,3.83
2019-03-11T12:10:53.329Z,3.80
2019-03-11T12:13:34.130Z,4.00
2019-03-11T12:16:14.711Z,3.90
2019-03-11T12:18:55.483Z,3.73
2019-03-11T12:21:35.997Z,3.87
2019-03-11T12:24:16.355Z,4.07
2019-03-11T12:26:56.855Z,3.80
2019-03-11T12:29:37.531Z,3.00
2019-03-11T12:32:18.192Z,3.60
2019-03-11T12:34:59.152Z,3.57
2019-03-11T12:37:39.549Z,3.07
2019-03-11T12:40:20.400Z,3.07
2019-03-11T12:43:00.906Z,3.70
2019-03-11T12:45:41.351Z,3.07
2019-03-11T12:48:22.112Z,3.37
2019-03-11T12:51:02.680Z,3.40
2019-03-11T12:53:43.384Z,2.47
2019-03-11T12:56:23.919Z,3.30
2019-03-11T12:59:04.382Z,2.50
2019-03-11T13:01:45.209Z,2.60
2019-03-11T13:04:25.997Z,4.90
2019-03-11T13:07:06.762Z,2.80
2019-03-11T13:09:47.702Z,2.60
2019-03-11T13:12:28.682Z,2.50
2019-03-11T13:15:09.438Z,2.30
2019-03-11T13:17:50.415Z,2.13
2019-03-11T13:20:31.368Z,2.00
2019-03-11T13:23:12.160Z,2.23
2019-03-11T13:25:52.635Z,2.20
2019-03-11T13:28:33.299Z,1.80
2019-03-11T13:31:13.616Z,2.00
2019-03-11T13:33:54.340Z,1.90
2019-03-11T13:36:34.834Z,2.13
2019-03-11T13:39:15.634Z,1.87
2019-03-11T13:41:56.877Z,1.70
2019-03-11T13:44:37.657Z,1.70
2019-03-11T13:47:17.959Z,1.90
2019-03-11T13:50:01.065Z,1.50
2019-03-11T13:52:41.132Z,1.73
2019-03-11T13:55:21.978Z,1.60
2019-03-11T13:58:02.575Z,1.70
2019-03-11T14:00:43.001Z,1.80
2019-03-11T14:03:23.799Z,1.67
2019-03-11T14:06:04.325Z,1.50
2019-03-11T14:08:44.741Z,1.90
2019-03-11T14:11:26.100Z,1.53
2019-03-11T14:13:54.591Z,1.97
2019-03-11T14:16:42.375Z,1.63
2019-03-11T14:19:23.570Z,1.80
2019-03-11T14:22:04.122Z,1.90
2019-03-11T14:24:44.511Z,1.83
2019-03-11T14:27:25.323Z,2.07
2019-03-11T14:30:06.116Z,1.50
2019-03-11T14:32:46.870Z,1.70
2019-03-11T14:35:27.894Z,2.00
2019-03-11T14:38:08.315Z,1.63
2019-03-11T14:40:49.020Z,1.53
2019-03-11T14:43:17.544Z,1.70
2019-03-11T14:46:06.972Z,1.87
2019-03-11T14:48:47.919Z,1.60
2019-03-11T14:51:28.805Z,1.30
2019-03-11T14:54:09.785Z,1.53
2019-03-11T14:56:50.423Z,1.53
2019-03-11T14:59:31.303Z,1.40
2019-03-11T15:02:12.188Z,1.57
2019-03-11T15:04:52.870Z,1.70
2019-03-11T15:07:33.856Z,1.30
2019-03-11T15:10:14.291Z,1.97
2019-03-11T15:12:55.089Z,2.00
2019-03-11T15:15:35.951Z,1.67
2019-03-11T15:18:16.923Z,1.50
2019-03-11T15:20:57.834Z,1.60
2019-03-11T15:23:38.784Z,1.83
2019-03-11T15:26:24.987Z,1.60
2019-03-11T15:29:02.486Z,1.57
2019-03-11T15:31:42.875Z,1.60
2019-03-11T15:34:23.963Z,1.20
2019-03-11T15:37:05.045Z,1.60
2019-03-11T15:39:47.839Z,1.50
2019-03-11T15:42:28.421Z,1.60
2019-03-11T15:45:08.959Z,1.63
2019-03-11T15:47:49.786Z,1.50
2019-03-11T15:50:30.722Z,1.30
2019-03-11T15:53:11.072Z,1.20
2019-03-11T15:55:51.963Z,1.70
2019-03-11T15:58:32.829Z,1.40
2019-03-11T16:01:13.585Z,1.53
2019-03-11T16:03:42.089Z,1.70
2019-03-11T16:06:29.922Z,1.90
2019-03-11T16:09:18.998Z,1.57
2019-03-11T16:11:53.169Z,1.37
2019-03-11T16:14:34.072Z,1.60
2019-03-11T16:19:57.312Z,1.63
2019-03-11T16:22:37.839Z,1.80
2019-03-11T16:25:09.027Z,1.73
2019-03-11T16:27:37.574Z,2.10
2019-03-11T16:30:09.143Z,1.70
2019-03-11T16:32:37.926Z,1.40
2019-03-11T16:35:07.067Z,1.50
2019-03-11T16:37:35.571Z,2.43
2019-03-11T16:40:06.985Z,1.83
2019-03-11T16:42:35.426Z,1.70
2019-03-11T16:47:55.927Z,2.27
2019-03-11T16:50:36.592Z,2.00
2019-03-11T16:53:17.361Z,1.73
2019-03-11T16:55:58.571Z,1.90
2019-03-11T16:58:39.676Z,2.03
2019-03-11T17:01:20.657Z,2.20
2019-03-11T17:04:01.499Z,2.20
2019-03-11T17:06:42.296Z,2.23
2019-03-11T17:09:23.191Z,2.00
2019-03-11T17:12:04.204Z,2.03
2019-03-11T17:14:44.811Z,2.10
2019-03-11T17:17:25.728Z,2.77
2019-03-11T17:20:06.307Z,2.40
2019-03-11T17:22:47.018Z,1.83
2019-03-11T17:25:28.070Z,1.97
2019-03-11T17:28:09.139Z,2.40
2019-03-11T17:30:49.862Z,2.20
2019-03-11T17:33:30.815Z,2.00
2019-03-11T17:36:12.000Z,2.20
2019-03-11T17:42:00.877Z,23.97
2019-03-11T17:44:41.983Z,1.90
2019-03-11T17:47:22.959Z,1.70
2019-03-11T17:50:03.668Z,1.77
2019-03-11T17:52:44.591Z,2.50
2019-03-11T17:55:25.511Z,2.30
2019-03-11T17:58:06.146Z,2.90
2019-03-11T18:00:55.625Z,3.23
2019-03-11T18:03:31.577Z,2.80
2019-03-11T18:06:10.816Z,2.37
2019-03-11T18:08:49.510Z,2.60
2019-03-11T18:11:30.628Z,3.10
2019-03-11T18:14:11.261Z,2.90
2019-03-11T18:16:52.407Z,4.37
2019-03-11T18:19:33.484Z,2.87
2019-03-11T18:22:14.327Z,4.17
2019-03-11T18:24:54.799Z,5.00
2019-03-11T18:27:35.415Z,5.53
2019-03-11T18:30:16.271Z,4.43
2019-03-11T18:32:56.859Z,3.53
2019-03-11T18:35:37.521Z,2.60
2019-03-11T18:38:18.303Z,2.77
2019-03-11T18:40:59.128Z,2.70
2019-03-11T18:43:43.101Z,3.10
2019-03-11T18:46:22.181Z,2.80
2019-03-11T18:49:05.065Z,2.40
2019-03-11T18:51:45.793Z,2.57
2019-03-11T18:54:26.344Z,2.20
2019-03-11T18:57:07.152Z,2.70
2019-03-11T18:59:48.186Z,2.97
2019-03-11T19:02:28.775Z,2.63
2019-03-11T19:04:57.207Z,2.83
2019-03-11T19:07:25.748Z,8.10
2019-03-11T19:09:54.184Z,5.90
2019-03-11T19:12:22.633Z,4.37
2019-03-11T19:14:51.070Z,3.40
2019-03-11T19:17:19.542Z,4.40
2019-03-11T19:19:48.015Z,4.03
2019-03-11T19:22:16.538Z,3.73
2019-03-11T19:24:45.086Z,4.17
2019-03-11T19:27:13.603Z,4.03
2019-03-11T19:29:42.033Z,3.93
2019-03-11T19:32:10.482Z,3.87
2019-03-11T19:34:38.919Z,3.70
2019-03-11T19:37:07.467Z,3.57
2019-03-11T19:39:35.965Z,3.37
2019-03-11T19:42:04.517Z,3.10
2019-03-11T19:44:32.950Z,2.87
2019-03-11T19:47:01.407Z,2.87
2019-03-11T19:49:29.927Z,2.77
2019-03-11T19:51:58.466Z,2.87
2019-03-11T19:54:26.972Z,3.23
2019-03-11T19:56:55.514Z,3.03
2019-03-11T19:59:24.039Z,3.03
2019-03-11T20:01:52.636Z,3.30
2019-03-11T20:04:21.185Z,3.10
2019-03-11T20:06:49.713Z,2.97
2019-03-11T20:09:18.272Z,3.10
2019-03-11T20:11:46.755Z,3.23
2019-03-11T20:14:15.245Z,3.83
2019-03-11T20:16:43.784Z,3.50
2019-03-11T20:19:12.281Z,3.00
2019-03-11T20:21:40.844Z,2.60
2019-03-11T20:24:09.271Z,2.67
2019-03-11T20:26:37.721Z,2.40
2019-03-11T20:29:06.440Z,2.50
2019-03-11T20:31:34.953Z,2.70
2019-03-11T20:34:03.444Z,2.70
2019-03-11T20:36:31.995Z,2.83
2019-03-11T20:39:00.583Z,2.80
2019-03-11T20:41:29.030Z,3.30
2019-03-11T20:43:57.493Z,3.07
2019-03-11T20:46:26.046Z,3.10
2019-03-11T20:48:54.736Z,3.63
2019-03-11T20:51:23.170Z,3.90
2019-03-11T20:53:51.640Z,3.70
2019-03-11T20:56:20.164Z,3.60
2019-03-11T20:58:48.685Z,3.90
2019-03-11T21:01:17.288Z,3.87
2019-03-11T21:03:45.730Z,3.10
2019-03-11T21:06:14.197Z,3.93
2019-03-11T21:08:45.544Z,3.17
2019-03-11T21:11:12.873Z,2.80
2019-03-11T21:13:41.415Z,3.80
2019-03-11T21:16:09.883Z,3.20
2019-03-11T21:18:38.432Z,2.93
2019-03-11T21:21:06.988Z,3.30
2019-03-11T21:23:35.424Z,3.17
2019-03-11T21:26:04.084Z,3.30
2019-03-11T21:28:32.677Z,3.20
2019-03-11T21:31:01.180Z,3.10
2019-03-11T21:33:29.739Z,3.40
2019-03-11T21:35:58.375Z,3.67
2019-03-11T21:38:26.840Z,3.43
2019-03-11T21:40:55.468Z,3.67
2019-03-11T21:43:23.913Z,3.13
2019-03-11T21:45:52.458Z,3.37
2019-03-11T21:48:20.958Z,3.37
2019-03-11T21:50:49.443Z,3.60
2019-03-11T21:53:17.928Z,3.73
2019-03-11T21:55:46.359Z,3.97
2019-03-11T21:58:14.913Z,4.33
2019-03-11T22:00:43.401Z,4.00
2019-03-11T22:03:11.921Z,4.40
2019-03-11T22:05:40.354Z,4.37
2019-03-11T22:08:08.787Z,4.57
2019-03-11T22:10:37.224Z,4.40
2019-03-11T22:13:05.678Z,5.00
2019-03-11T22:15:34.106Z,4.57
2019-03-11T22:18:02.539Z,5.37
2019-03-11T22:20:31.010Z,5.83
2019-03-11T22:22:59.448Z,5.30
2019-03-11T22:25:27.917Z,5.20
2019-03-11T22:27:56.400Z,5.80
2019-03-11T22:30:25.317Z,5.50
2019-03-11T22:32:53.842Z,5.90
2019-03-11T22:35:22.297Z,6.00
2019-03-11T22:37:50.759Z,6.20
2019-03-11T22:40:19.747Z,5.50
2019-03-11T22:42:48.201Z,6.13
2019-03-11T22:45:21.179Z,5.80
2019-03-11T22:47:50.774Z,6.53
2019-03-11T22:50:19.581Z,6.93
2019-03-11T22:52:48.035Z,7.47
2019-03-11T22:55:16.826Z,7.17
2019-03-11T22:57:45.277Z,7.33
2019-03-11T23:01:01.746Z,7.90
2019-03-11T23:03:30.190Z,7.23
2019-03-11T23:05:58.866Z,7.33
2019-03-11T23:08:27.336Z,7.00
2019-03-11T23:10:55.786Z,7.80
2019-03-11T23:13:24.221Z,7.70
2019-03-11T23:15:52.675Z,8.43
2019-03-11T23:18:21.110Z,7.93
2019-03-11T23:20:49.594Z,7.27
2019-03-11T23:23:18.013Z,7.40
2019-03-11T23:25:46.468Z,8.10
2019-03-11T23:28:14.911Z,8.20
2019-03-11T23:30:43.372Z,8.40
2019-03-11T23:33:11.812Z,9.53
2019-03-11T23:35:40.263Z,9.60
2019-03-11T23:38:08.695Z,9.13
2019-03-11T23:40:37.163Z,10.03
2019-03-11T23:43:05.599Z,10.07
2019-03-11T23:45:34.057Z,10.20
2019-03-11T23:48:02.513Z,10.50
2019-03-11T23:50:30.962Z,9.37
2019-03-11T23:52:59.410Z,9.70
2019-03-11T23:55:27.857Z,9.00
2019-03-11T23:57:56.312Z,9.63
